Time;durP1;ratioP1;P1;durP2;ratioP2;P2;SDS_P1;SDS_P2;PMS_P1;PMS_P2;Temp;Humidity;BMP_temperature;BMP_pressure;BME280_temperature;BME280_humidity;BME280_pressure;Samples;Min_cycle;Max_cycle;Signal;HPM_P1;HPM_P2
2023/10/16 00:00:42;;;;;;;;;;;;;;;17.84;47.11;100033.41;4941997;29;1220;-47
2023/10/16 00:03:08;;;;;;;;;;;;;;;17.34;47.05;100034.72;4954514;29;2351;-48
2023/10/16 00:05:38;;;;;;;;;;;;;;;17.24;46.55;100041.19;4960865;29;1065;-46
2023/10/16 00:08:07;;;;;;;;;;;;;;;17.45;46.17;100038.16;4960664;29;1036;-48
2023/10/16 00:10:33;;;;;;;;;;;;;;;17.81;47.25;100045.88;4960436;29;1017;-46
2023/10/16 00:13:04;;;;;;;;;;;;;;;17.38;47.04;100046.75;4960555;29;1898;-49
2023/10/16 00:15:33;;;;;;;;;;;;;;;17.24;46.31;100049.44;4946805;29;977;-47
2023/10/16 00:17:58;;;;;;;;;;;;;;;17.10;46.05;100049.34;4949509;29;1094;-47
2023/10/16 00:20:26;;;;;;;;;;;;;;;17.17;45.34;100056.41;4960536;29;1168;-47
2023/10/16 00:22:51;;;;;;;;;;;;;;;17.65;47.27;100052.72;4952118;29;1046;-48
2023/10/16 00:25:21;;;;;;;;;;;;;;;17.37;46.77;100061.63;4954011;29;1097;-49
2023/10/16 00:27:47;;;;;;;;;;;;;;;17.17;46.46;100070.16;4941409;29;867;-49
2023/10/16 00:30:14;;;;;;;;;;;;;;;17.17;45.57;100070.16;4943539;29;1204;-45
2023/10/16 00:32:40;;;;;;;;;;;;;;;17.57;46.50;100068.78;4960408;29;1902;-44
2023/10/16 00:35:08;;;;;;;;;;;;;;;17.43;46.94;100082.44;4957952;29;2798;-44
2023/10/16 00:37:34;;;;;;;;;;;;;;;17.30;46.48;100082.34;4950213;29;1018;-48
2023/10/16 00:40:01;;;;;;;;;;;;;;;17.14;45.72;100071.56;4959465;29;899;-44
2023/10/16 00:42:26;;;;;;;;;;;;;;;17.13;45.71;100082.84;4958990;29;1106;-48
2023/10/16 00:44:54;;;;;;;;;;;;;;;17.72;46.73;100081.44;4958619;29;1014;-48
2023/10/16 00:47:20;;;;;;;;;;;;;;;17.35;46.77;100063.84;4958402;28;1089;-48
2023/10/16 00:49:48;;;;;;;;;;;;;;;17.15;46.17;100073.16;4958879;29;1302;-47
2023/10/16 00:52:14;;;;;;;;;;;;;;;18.07;46.93;100073.78;4951439;29;1975;-48
2023/10/16 00:54:41;;;;;;;;;;;;;;;17.52;47.50;100073.53;4958224;29;1070;-47
2023/10/16 00:57:07;;;;;;;;;;;;;;;17.31;46.78;100093.03;4949817;29;1034;-47
2023/10/16 00:59:35;;;;;;;;;;;;;;;17.20;46.29;100097.03;4952430;29;1239;-48
2023/10/16 01:02:17;;;;;;;;;;;;;;;17.20;45.64;100094.28;4939685;29;1272;-46
2023/10/16 01:04:43;;;;;;;;;;;;;;;18.06;47.02;100107.09;4941015;29;1855;-44
2023/10/16 01:07:14;;;;;;;;;;;;;;;17.59;47.43;100105.00;4951389;29;1090;-49
2023/10/16 01:09:40;;;;;;;;;;;;;;;17.35;46.52;100116.06;4945264;29;1184;-49
2023/10/16 01:12:06;;;;;;;;;;;;;;;17.21;46.05;100112.41;4959673;29;1968;-47
2023/10/16 01:14:35;;;;;;;;;;;;;;;17.34;46.21;100122.66;4956562;29;1058;-49
2023/10/16 01:17:01;;;;;;;;;;;;;;;17.63;47.36;100132.75;4953308;29;1065;-47
2023/10/16 01:19:28;;;;;;;;;;;;;;;17.29;47.00;100133.72;4940673;29;1085;-48
2023/10/16 01:21:54;;;;;;;;;;;;;;;17.19;46.24;100150.34;4953339;29;1002;-47
2023/10/16 01:24:21;;;;;;;;;;;;;;;17.15;45.70;100152.03;4951240;29;1637;-44
2023/10/16 01:26:46;;;;;;;;;;;;;;;17.64;46.45;100145.34;4940987;29;1159;-48
2023/10/16 01:29:15;;;;;;;;;;;;;;;17.56;47.25;100157.03;4940626;29;1108;-49
2023/10/16 01:31:44;;;;;;;;;;;;;;;17.32;46.51;100152.38;4938593;29;1059;-47
2023/10/16 01:34:12;;;;;;;;;;;;;;;17.12;46.06;100150.69;4947798;29;2642;-47
2023/10/16 01:36:37;;;;;;;;;;;;;;;17.06;45.89;100157.34;4957476;29;1109;-45
2023/10/16 01:39:06;;;;;;;;;;;;;;;17.07;45.13;100170.00;4953032;29;1057;-49
2023/10/16 01:41:32;;;;;;;;;;;;;;;16.98;44.93;100172.53;4954216;29;1072;-49
2023/10/16 01:43:59;;;;;;;;;;;;;;;16.96;45.00;100174.75;4957729;29;1025;-46
2023/10/16 01:46:24;;;;;;;;;;;;;;;17.83;46.82;100178.38;4958933;29;1045;-48
2023/10/16 01:48:50;;;;;;;;;;;;;;;17.24;47.07;100192.31;4958746;29;1006;-46
2023/10/16 01:51:22;;;;;;;;;;;;;;;17.14;46.22;100203.41;4954153;28;1100;-47
2023/10/16 01:53:49;;;;;;;;;;;;;;;17.90;46.88;100206.31;4959042;29;1915;-48
2023/10/16 01:56:15;;;;;;;;;;;;;;;17.40;47.01;100219.59;4944761;29;1452;-48
2023/10/16 01:58:41;;;;;;;;;;;;;;;17.19;46.80;100210.78;4956300;28;1161;-49
2023/10/16 02:01:08;;;;;;;;;;;;;;;17.15;45.93;100224.25;4944698;29;1405;-48
2023/10/16 02:03:34;;;;;;;;;;;;;;;17.95;46.65;100216.50;4955927;29;2388;-44
2023/10/16 02:05:59;;;;;;;;;;;;;;;17.31;47.23;100224.13;4957106;29;1041;-45
2023/10/16 02:08:26;;;;;;;;;;;;;;;17.24;46.06;100224.47;4957331;29;1222;-48
2023/10/16 02:10:52;;;;;;;;;;;;;;;17.09;45.61;100220.75;4956592;29;1045;-48
2023/10/16 02:13:17;;;;;;;;;;;;;;;16.94;45.50;100237.38;4948198;29;1963;-47
2023/10/16 02:15:43;;;;;;;;;;;;;;;17.84;46.90;100232.28;4951017;29;1144;-48
2023/10/16 02:18:24;;;;;;;;;;;;;;;17.27;47.03;100241.19;4957955;29;1042;-48
2023/10/16 02:20:50;;;;;;;;;;;;;;;17.13;46.37;100232.00;4953463;29;1129;-48
2023/10/16 02:23:16;;;;;;;;;;;;;;;18.17;46.75;100239.84;4939249;29;997;-49
2023/10/16 02:25:41;;;;;;;;;;;;;;;17.52;47.33;100246.69;4952069;29;1051;-49
2023/10/16 02:28:08;;;;;;;;;;;;;;;17.28;46.68;100253.00;4950309;29;1073;-48
2023/10/16 02:30:38;;;;;;;;;;;;;;;17.16;46.11;100264.38;4945618;29;1188;-46
2023/10/16 02:35:42;;;;;;;;;;;;;;;17.00;45.23;100276.59;4946288;29;971;-46
2023/10/16 02:38:11;;;;;;;;;;;;;;;17.31;45.69;100268.91;4957679;28;1065;-50
2023/10/16 02:40:37;;;;;;;;;;;;;;;17.45;47.14;100275.34;4952469;29;873;-46
2023/10/16 02:43:04;;;;;;;;;;;;;;;17.22;46.27;100276.13;4956241;29;1077;-47
2023/10/16 02:45:30;;;;;;;;;;;;;;;17.08;45.92;100290.56;4947096;29;1072;-47
2023/10/16 02:47:57;;;;;;;;;;;;;;;16.92;45.45;100294.53;4958100;29;1089;-47
2023/10/16 02:50:23;;;;;;;;;;;;;;;18.05;46.07;100293.38;4958112;29;1087;-48
2023/10/16 02:52:48;;;;;;;;;;;;;;;17.37;46.71;100300.72;4944899;29;1903;-48
2023/10/16 02:55:14;;;;;;;;;;;;;;;17.15;46.22;100308.63;4950084;29;1108;-48
2023/10/16 02:57:40;;;;;;;;;;;;;;;17.02;45.54;100302.69;4938784;29;1098;-43
2023/10/16 03:00:08;;;;;;;;;;;;;;;18.06;46.28;100295.00;4950276;29;1113;-47
2023/10/16 03:02:35;;;;;;;;;;;;;;;17.28;47.01;100321.69;4952573;29;1093;-47
2023/10/16 03:05:21;;;;;;;;;;;;;;;17.11;46.48;100300.16;4957432;29;2568;-49
2023/10/16 03:07:50;;;;;;;;;;;;;;;17.76;46.87;100318.97;4956113;29;1022;-43
2023/10/16 03:10:16;;;;;;;;;;;;;;;17.49;47.29;100313.22;4959539;28;1085;-44
2023/10/16 03:12:42;;;;;;;;;;;;;;;17.27;46.48;100328.31;4956826;29;1984;-45
2023/10/16 03:15:20;;;;;;;;;;;;;;;17.19;45.89;100335.22;4954288;29;1148;-48
2023/10/16 03:17:50;;;;;;;;;;;;;;;17.47;46.33;100323.72;4955441;29;1229;-49
2023/10/16 03:21:00;;;;;;;;;;;;;;;17.84;47.31;100324.94;4948826;29;1033;-50
2023/10/16 03:23:08;;;;;;;;;;;;;;;17.34;47.11;100334.28;4946175;29;1399;-48
2023/10/16 03:28:08;;;;;;;;;;;;;;;17.14;45.43;100342.69;4955971;29;1176;-49
2023/10/16 03:30:34;;;;;;;;;;;;;;;17.39;46.07;100356.22;4942808;29;1124;-49
2023/10/16 03:32:59;;;;;;;;;;;;;;;17.57;47.14;100342.84;4957176;29;1974;-46
2023/10/16 03:35:38;;;;;;;;;;;;;;;17.28;46.51;100358.22;4960783;29;1821;-46
2023/10/16 03:38:12;;;;;;;;;;;;;;;17.20;45.74;100355.28;4975965;28;1217;-48
2023/10/16 03:40:38;;;;;;;;;;;;;;;17.16;45.89;100362.47;4958855;29;1209;-48
2023/10/16 03:43:04;;;;;;;;;;;;;;;17.85;46.93;100343.94;4960847;29;1017;-51
2023/10/16 03:45:29;;;;;;;;;;;;;;;17.37;47.05;100355.69;4960956;29;1010;-50
2023/10/16 03:47:57;;;;;;;;;;;;;;;17.15;46.15;100369.06;4960294;29;1069;-53
2023/10/16 03:50:34;;;;;;;;;;;;;;;18.11;46.93;100368.41;4949583;29;1040;-54
2023/10/16 03:53:00;;;;;;;;;;;;;;;17.47;47.57;100382.25;4949077;29;1910;-55
2023/10/16 03:55:25;;;;;;;;;;;;;;;17.25;46.75;100393.69;4942043;29;1014;-55
2023/10/16 03:57:51;;;;;;;;;;;;;;;18.10;46.97;100402.53;4944548;29;1042;-53
2023/10/16 04:00:17;;;;;;;;;;;;;;;17.52;47.78;100390.44;4952041;29;1033;-54
2023/10/16 04:02:44;;;;;;;;;;;;;;;17.33;46.77;100393.09;4954288;29;1112;-55
2023/10/16 04:05:29;;;;;;;;;;;;;;;17.93;47.66;100403.00;4954669;29;2213;-54
2023/10/16 04:07:56;;;;;;;;;;;;;;;17.67;47.83;100397.75;4959721;28;1133;-54
2023/10/16 04:10:27;;;;;;;;;;;;;;;17.27;47.39;100397.00;4960774;29;998;-54
2023/10/16 04:12:53;;;;;;;;;;;;;;;17.16;46.41;100399.00;4947826;29;1968;-53
2023/10/16 04:15:34;;;;;;;;;;;;;;;18.36;47.54;100378.28;4960894;29;1108;-54
2023/10/16 04:18:04;;;;;;;;;;;;;;;17.76;48.10;100379.47;4947896;29;1147;-50
2023/10/16 04:20:43;;;;;;;;;;;;;;;17.44;47.53;100375.41;4958117;28;1090;-50
2023/10/16 04:23:29;;;;;;;;;;;;;;;17.33;46.39;100379.34;4951118;29;1014;-54
2023/10/16 04:29:20;;;;;;;;;;;;;;;17.70;48.02;100397.16;4950259;29;961;-52
2023/10/16 04:36:54;;;;;;;;;;;;;;;18.11;47.92;100399.47;4955551;29;1090;-55
2023/10/16 04:42:49;;;;;;;;;;;;;;;17.54;49.64;100407.47;4946726;29;942;-49
2023/10/16 04:47:42;;;;;;;;;;;;;;;17.20;50.76;100408.31;4959574;29;1088;-52
2023/10/16 04:50:09;;;;;;;;;;;;;;;17.12;50.83;100428.16;4959071;29;1094;-54
2023/10/16 04:52:51;;;;;;;;;;;;;;;17.00;51.04;100434.00;4942380;29;1968;-53
2023/10/16 04:55:53;;;;;;;;;;;;;;;16.95;51.28;100458.75;4947673;29;1522;-56
2023/10/16 06:14:14;;;;;;;;;;;;;;;16.51;53.48;100701.00;4958213;29;1903;-51
2023/10/16 06:16:40;;;;;;;;;;;;;;;16.45;53.36;100713.09;4957862;29;1041;-56
2023/10/16 06:19:15;;;;;;;;;;;;;;;16.31;53.45;100710.06;4939860;29;1149;-50
2023/10/16 06:21:45;;;;;;;;;;;;;;;16.99;53.12;100720.78;4957720;29;1141;-54
2023/10/16 06:24:25;;;;;;;;;;;;;;;17.24;52.50;100741.88;4953438;29;1049;-53
2023/10/16 06:26:57;;;;;;;;;;;;;;;16.73;53.56;100756.50;4946288;29;1118;-53
2023/10/16 06:29:34;;;;;;;;;;;;;;;16.54;53.64;100774.59;4954611;29;1154;-53
2023/10/16 06:32:07;;;;;;;;;;;;;;;16.46;53.56;100795.16;4960817;28;1389;-52
2023/10/16 06:34:33;;;;;;;;;;;;;;;17.12;53.23;100803.72;4951513;28;1990;-54
2023/10/16 06:37:05;;;;;;;;;;;;;;;17.06;52.95;100811.97;4957692;29;1276;-53
2023/10/16 06:39:36;;;;;;;;;;;;;;;16.67;53.83;100815.22;4957948;29;1054;-51
2023/10/16 06:42:04;;;;;;;;;;;;;;;16.50;53.99;100831.97;4949926;29;1056;-53
2023/10/16 06:44:36;;;;;;;;;;;;;;;16.37;53.76;100830.56;4952097;28;1256;-53
2023/10/16 06:47:01;;;;;;;;;;;;;;;16.41;54.09;100819.84;4957642;29;1389;-52
2023/10/16 06:49:36;;;;;;;;;;;;;;;17.50;51.98;100829.78;4953743;29;1113;-56
2023/10/16 06:52:05;;;;;;;;;;;;;;;16.81;53.45;100839.41;4957596;29;1029;-55
2023/10/16 06:54:37;;;;;;;;;;;;;;;16.60;53.91;100844.88;4949828;29;1970;-57
2023/10/16 06:57:10;;;;;;;;;;;;;;;16.40;54.08;100859.38;4957992;28;1300;-54
2023/10/16 06:59:46;;;;;;;;;;;;;;;16.29;53.92;100861.28;4951746;29;1006;-53
2023/10/16 07:02:15;;;;;;;;;;;;;;;17.30;52.92;100865.53;4941566;29;994;-51
2023/10/16 07:04:41;;;;;;;;;;;;;;;17.04;53.27;100884.75;4943640;29;1894;-50
2023/10/16 07:07:14;;;;;;;;;;;;;;;16.62;53.75;100894.00;4950801;29;908;-52
2023/10/16 07:09:49;;;;;;;;;;;;;;;16.46;53.99;100884.94;4943635;29;991;-47
2023/10/16 07:12:18;;;;;;;;;;;;;;;16.87;53.83;100895.97;4956900;29;1969;-51
2023/10/16 07:14:45;;;;;;;;;;;;;;;17.33;52.57;100914.47;4952099;29;1037;-55
2023/10/16 07:17:13;;;;;;;;;;;;;;;16.75;53.84;100897.06;4961410;28;997;-56
2023/10/16 07:19:41;;;;;;;;;;;;;;;16.56;53.76;100906.91;4954276;28;1113;-49
2023/10/16 07:22:10;;;;;;;;;;;;;;;16.34;54.21;100913.44;4956468;29;1378;-53
2023/10/16 07:24:36;;;;;;;;;;;;;;;16.32;53.75;100918.34;4952782;29;987;-52
2023/10/16 07:27:12;;;;;;;;;;;;;;;17.58;52.36;100906.19;4956916;29;1028;-56
2023/10/16 07:29:41;;;;;;;;;;;;;;;16.95;53.54;100920.19;4955359;29;1042;-52
2023/10/16 07:32:08;;;;;;;;;;;;;;;16.62;54.00;100932.44;4957554;28;1192;-53
2023/10/16 07:34:37;;;;;;;;;;;;;;;16.47;54.05;100938.75;4959866;28;1978;-53
2023/10/16 07:37:07;;;;;;;;;;;;;;;16.89;54.06;100933.09;4949755;29;1030;-51
2023/10/16 07:39:33;;;;;;;;;;;;;;;17.35;52.86;100940.56;4953937;29;1080;-47
2023/10/16 07:42:01;;;;;;;;;;;;;;;16.80;54.00;100951.16;4945135;29;1014;-50
2023/10/16 07:44:28;;;;;;;;;;;;;;;16.59;54.28;100967.59;4954217;28;1232;-54
2023/10/16 07:46:53;;;;;;;;;;;;;;;16.48;54.14;100992.50;4951124;29;1094;-52
2023/10/16 07:49:25;;;;;;;;;;;;;;;16.56;54.70;101003.00;4955795;29;1338;-54
2023/10/16 07:51:52;;;;;;;;;;;;;;;17.34;53.32;100993.06;4951976;29;1070;-55
2023/10/16 07:54:18;;;;;;;;;;;;;;;16.76;54.30;100997.59;4954709;29;1906;-54
2023/10/16 08:00:14;;;;;;;;;;;;;;;16.36;54.33;101010.03;4958621;29;1220;-53
2023/10/16 08:02:44;;;;;;;;;;;;;;;17.35;53.47;100998.28;4960892;28;1275;-55
2023/10/16 08:05:16;;;;;;;;;;;;;;;16.96;53.87;101007.00;4960224;29;1844;-56
2023/10/16 08:07:47;;;;;;;;;;;;;;;16.64;54.30;101018.94;4955136;29;1136;-54
2023/10/16 08:10:41;;;;;;;;;;;;;;;16.48;54.45;101022.72;4960440;29;1255;-56
2023/10/16 08:13:13;;;;;;;;;;;;;;;16.38;54.61;101031.72;4974890;28;1918;-55
2023/10/16 08:15:44;;;;;;;;;;;;;;;17.67;52.66;101052.22;4968571;28;1117;-53
2023/10/16 08:18:13;;;;;;;;;;;;;;;16.90;54.24;101055.63;4959696;29;1381;-55
2023/10/16 08:21:00;;;;;;;;;;;;;;;16.66;54.42;101055.22;4946873;28;1137;-54
2023/10/16 08:23:34;;;;;;;;;;;;;;;16.42;54.36;101057.53;4962170;28;1381;-54
2023/10/16 08:26:44;;;;;;;;;;;;;;;16.39;54.31;101053.41;4970767;28;1117;-51
2023/10/16 08:28:51;;;;;;;;;;;;;;;17.54;52.90;101063.75;4965460;28;1662;-54
2023/10/16 08:31:25;;;;;;;;;;;;;;;16.80;54.23;101065.69;4956536;29;1185;-54
2023/10/16 08:33:51;;;;;;;;;;;;;;;16.56;54.45;101068.88;4963120;28;1907;-54
2023/10/16 08:36:20;;;;;;;;;;;;;;;16.47;54.25;101078.72;4958324;28;1093;-56
2023/10/16 08:38:52;;;;;;;;;;;;;;;17.28;53.75;101074.69;4952548;28;1121;-56
2023/10/16 08:41:24;;;;;;;;;;;;;;;17.12;53.79;101067.50;4951154;29;1033;-56
2023/10/16 08:44:04;;;;;;;;;;;;;;;16.70;54.33;101074.72;4943559;29;973;-56
2023/10/16 08:46:34;;;;;;;;;;;;;;;16.51;54.46;101082.56;4947607;28;1134;-56
2023/10/16 08:49:03;;;;;;;;;;;;;;;16.39;54.11;101080.03;4956982;29;934;-56
2023/10/16 08:51:30;;;;;;;;;;;;;;;16.24;54.13;101097.22;4958773;28;973;-56
2023/10/16 08:53:59;;;;;;;;;;;;;;;16.23;54.58;101101.06;4945727;29;1910;-57
2023/10/16 08:56:24;;;;;;;;;;;;;;;17.68;53.04;101116.28;4954250;29;1025;-56
2023/10/16 08:58:51;;;;;;;;;;;;;;;16.95;53.93;101106.19;4958377;28;1101;-56
2023/10/16 09:01:17;;;;;;;;;;;;;;;16.57;54.50;101100.72;4965230;28;1449;-56
2023/10/16 09:03:55;;;;;;;;;;;;;;;16.39;54.54;101091.81;4966762;28;1976;-56
2023/10/16 09:06:24;;;;;;;;;;;;;;;16.31;54.23;101113.47;4959125;29;1137;-56
2023/10/16 09:08:50;;;;;;;;;;;;;;;16.87;54.29;101115.72;4958578;28;1291;-55
2023/10/16 09:11:16;;;;;;;;;;;;;;;17.41;53.16;101111.84;4956432;28;1147;-55
2023/10/16 09:13:49;;;;;;;;;;;;;;;16.76;54.63;101121.16;4964475;28;1906;-49
2023/10/16 09:16:15;;;;;;;;;;;;;;;16.53;54.48;101125.13;4963116;28;954;-51
2023/10/16 09:18:41;;;;;;;;;;;;;;;16.43;54.38;101134.13;4958204;28;1121;-52
2023/10/16 09:21:27;;;;;;;;;;;;;;;16.58;54.71;101138.09;4959165;29;1338;-53
2023/10/16 09:23:59;;;;;;;;;;;;;;;17.28;53.71;101126.91;4958298;29;1295;-56
2023/10/16 09:26:25;;;;;;;;;;;;;;;16.75;54.39;101130.47;4960574;28;1287;-57
2023/10/16 09:28:53;;;;;;;;;;;;;;;16.51;54.58;101124.59;4961314;28;1219;-54
2023/10/16 09:31:19;;;;;;;;;;;;;;;16.40;54.38;101118.19;4959821;28;1404;-55
2023/10/16 09:33:48;;;;;;;;;;;;;;;16.93;54.39;101115.50;4960362;28;1973;-53
2023/10/16 09:36:22;;;;;;;;;;;;;;;17.14;53.62;101112.00;4959191;29;1188;-56
2023/10/16 09:38:51;;;;;;;;;;;;;;;16.67;54.63;101114.50;4946566;29;1093;-53
2023/10/16 09:44:07;;;;;;;;;;;;;;;16.37;54.33;101113.22;4952086;29;969;-50
2023/10/16 09:49:13;;;;;;;;;;;;;;;16.71;54.58;101123.06;4958018;28;1405;-51
2023/10/16 09:51:44;;;;;;;;;;;;;;;17.43;53.37;101117.88;4957946;28;1105;-49
2023/10/16 09:54:11;;;;;;;;;;;;;;;16.72;54.59;101120.03;4958657;29;1972;-46
2023/10/16 09:56:40;;;;;;;;;;;;;;;16.58;54.47;101121.63;4953344;28;1186;-48
2023/10/16 09:59:09;;;;;;;;;;;;;;;16.41;54.29;101128.09;4957457;29;1234;-51
2023/10/16 10:01:43;;;;;;;;;;;;;;;17.02;54.21;101121.31;4958375;29;1533;-50
2023/10/16 10:04:12;;;;;;;;;;;;;;;17.11;54.02;101127.13;4958506;29;1890;-51
2023/10/16 10:06:41;;;;;;;;;;;;;;;16.70;54.58;101122.22;4943165;29;962;-52
2023/10/16 10:11:38;;;;;;;;;;;;;;;16.38;54.55;101130.53;4969329;28;1109;-52
2023/10/16 10:16:56;;;;;;;;;;;;;;;16.93;54.31;101137.47;4957847;29;1145;-48
2023/10/16 10:19:28;;;;;;;;;;;;;;;16.59;54.83;101134.22;4942511;29;1037;-48
2023/10/16 10:21:55;;;;;;;;;;;;;;;16.46;54.48;101132.78;4951143;28;1236;-46
2023/10/16 10:24:21;;;;;;;;;;;;;;;16.42;54.14;101137.97;4956784;28;1574;-44
2023/10/16 10:26:48;;;;;;;;;;;;;;;17.24;53.63;101139.53;4958434;29;1057;-50
2023/10/16 10:29:16;;;;;;;;;;;;;;;17.15;53.69;101138.41;4958434;29;1208;-49
2023/10/16 10:31:45;;;;;;;;;;;;;;;16.69;54.42;101134.31;4950345;28;1189;-50
2023/10/16 10:34:29;;;;;;;;;;;;;;;16.50;54.71;101127.59;4954038;28;1965;-49
2023/10/16 10:36:54;;;;;;;;;;;;;;;16.41;54.44;101141.81;4951849;29;1138;-52
2023/10/16 10:39:20;;;;;;;;;;;;;;;16.29;54.26;101143.91;4951547;29;1116;-51
2023/10/16 10:41:47;;;;;;;;;;;;;;;17.20;53.78;101146.66;4949606;29;1109;-53
2023/10/16 10:44:14;;;;;;;;;;;;;;;17.20;53.62;101147.50;4943976;29;836;-48
2023/10/16 10:46:49;;;;;;;;;;;;;;;16.73;54.56;101143.66;4949576;29;1111;-47
2023/10/16 10:49:15;;;;;;;;;;;;;;;16.50;54.76;101144.06;4957909;29;1139;-46
2023/10/16 10:51:47;;;;;;;;;;;;;;;16.39;54.63;101133.00;4944781;29;994;-47
2023/10/16 10:54:15;;;;;;;;;;;;;;;16.68;54.97;101135.41;4957995;29;1914;-46
2023/10/16 10:56:53;;;;;;;;;;;;;;;17.39;53.44;101142.34;4944493;29;995;-47
2023/10/16 10:59:39;;;;;;;;;;;;;;;16.79;54.59;101129.94;4957833;29;1081;-48
2023/10/16 11:02:09;;;;;;;;;;;;;;;16.55;54.75;101120.22;4951355;29;1097;-55
2023/10/16 11:04:35;;;;;;;;;;;;;;;16.40;54.61;101134.66;4951981;29;1907;-55
2023/10/16 11:07:11;;;;;;;;;;;;;;;16.42;54.86;101126.16;4951227;29;1052;-55
2023/10/16 11:09:38;;;;;;;;;;;;;;;17.58;52.93;101144.59;4940704;29;970;-55
2023/10/16 11:12:07;;;;;;;;;;;;;;;16.81;54.65;101134.09;4948244;29;1109;-55
2023/10/16 11:14:36;;;;;;;;;;;;;;;16.60;54.51;101138.63;4950390;29;1918;-56
2023/10/16 11:17:05;;;;;;;;;;;;;;;16.46;54.71;101143.75;4947690;29;1066;-55
2023/10/16 11:19:49;;;;;;;;;;;;;;;16.36;54.55;101143.69;4944150;28;1026;-53
2023/10/16 11:22:21;;;;;;;;;;;;;;;17.02;54.42;101157.03;4954824;29;1044;-53
2023/10/16 11:24:47;;;;;;;;;;;;;;;17.21;53.91;101159.31;4957011;29;994;-51
2023/10/16 11:27:13;;;;;;;;;;;;;;;16.71;54.74;101154.06;4957163;29;1026;-53
2023/10/16 11:29:40;;;;;;;;;;;;;;;16.50;54.78;101155.03;4953689;28;1233;-48
2023/10/16 11:32:14;;;;;;;;;;;;;;;16.92;54.79;101152.31;4960361;28;1317;-50
2023/10/16 11:34:50;;;;;;;;;;;;;;;17.41;53.48;101159.38;4961041;28;1994;-51
2023/10/16 11:37:16;;;;;;;;;;;;;;;16.79;54.59;101151.91;4961086;28;1150;-49
2023/10/16 11:39:44;;;;;;;;;;;;;;;16.58;54.73;101151.81;4960060;29;1108;-49
2023/10/16 11:42:10;;;;;;;;;;;;;;;16.54;54.26;101156.19;4961117;29;1122;-48
2023/10/16 11:44:37;;;;;;;;;;;;;;;16.37;54.34;101151.66;4958235;28;1214;-49
2023/10/16 11:47:07;;;;;;;;;;;;;;;16.98;54.46;101149.59;4965798;28;1109;-51
2023/10/16 11:49:35;;;;;;;;;;;;;;;17.30;53.66;101156.88;4973408;28;1071;-50
2023/10/16 11:52:20;;;;;;;;;;;;;;;16.75;54.77;101146.97;4961519;28;1288;-50
2023/10/16 11:54:46;;;;;;;;;;;;;;;16.52;54.75;101163.84;4948746;28;1982;-55
2023/10/16 11:57:13;;;;;;;;;;;;;;;16.45;54.43;101157.75;4955300;28;1151;-52
2023/10/16 11:59:38;;;;;;;;;;;;;;;16.76;54.79;101170.59;4961239;28;1244;-52
2023/10/16 12:02:16;;;;;;;;;;;;;;;17.33;53.28;101173.66;4966386;28;1404;-53
2023/10/16 12:04:42;;;;;;;;;;;;;;;16.78;54.44;101170.31;4960272;28;2105;-53
2023/10/16 12:07:08;;;;;;;;;;;;;;;16.60;54.29;101179.81;4960574;28;1137;-53
2023/10/16 12:09:38;;;;;;;;;;;;;;;16.42;54.49;101175.56;4953130;28;1166;-51
2023/10/16 12:12:06;;;;;;;;;;;;;;;16.71;54.22;101173.31;4964549;28;1096;-51
2023/10/16 12:14:37;;;;;;;;;;;;;;;17.39;53.13;101190.97;4968338;28;1914;-50
2023/10/16 12:17:06;;;;;;;;;;;;;;;16.80;54.09;101192.03;4960201;29;1287;-54
2023/10/16 12:19:32;;;;;;;;;;;;;;;16.61;54.16;101189.72;4961968;28;1095;-52
2023/10/16 12:22:00;;;;;;;;;;;;;;;16.49;54.11;101180.84;4947836;28;1140;-51
2023/10/16 12:24:26;;;;;;;;;;;;;;;16.65;54.49;101190.00;4962278;28;1093;-47
2023/10/16 12:26:52;;;;;;;;;;;;;;;17.53;52.76;101183.06;4960122;29;1055;-46
2023/10/16 12:29:18;;;;;;;;;;;;;;;16.87;54.19;101184.38;4960118;28;1404;-49
2023/10/16 12:31:43;;;;;;;;;;;;;;;16.62;54.13;101188.63;4953964;29;1018;-51
2023/10/16 12:34:12;;;;;;;;;;;;;;;16.53;54.07;101187.47;4960380;29;1974;-48
2023/10/16 12:36:38;;;;;;;;;;;;;;;16.39;54.12;101190.63;4959631;29;1025;-54
2023/10/16 12:39:13;;;;;;;;;;;;;;;17.64;52.64;101190.25;4960251;28;1147;-52
2023/10/16 12:41:40;;;;;;;;;;;;;;;17.00;53.91;101192.19;4959956;28;1074;-50
2023/10/16 12:44:09;;;;;;;;;;;;;;;16.67;54.45;101194.13;4955608;29;1136;-54
2023/10/16 12:46:35;;;;;;;;;;;;;;;16.50;54.45;101196.22;4940761;29;1112;-50
2023/10/16 12:49:00;;;;;;;;;;;;;;;16.39;54.44;101192.56;4955591;29;1026;-51
2023/10/16 12:51:26;;;;;;;;;;;;;;;16.36;54.24;101199.41;4960213;29;1033;-49
2023/10/16 12:53:51;;;;;;;;;;;;;;;17.29;53.42;101208.25;4955910;29;1902;-51
2023/10/16 12:56:20;;;;;;;;;;;;;;;17.03;53.77;101208.13;4945543;29;1104;-48
2023/10/16 12:58:46;;;;;;;;;;;;;;;16.65;54.57;101207.31;4957089;29;970;-47
2023/10/16 13:01:12;;;;;;;;;;;;;;;16.53;54.54;101209.41;4950057;28;1058;-49
2023/10/16 13:03:38;;;;;;;;;;;;;;;16.36;54.48;101207.63;4955930;29;1917;-46
2023/10/16 13:06:05;;;;;;;;;;;;;;;17.63;52.85;101199.59;4954919;28;1306;-48
2023/10/16 13:08:31;;;;;;;;;;;;;;;17.23;53.37;101195.59;4951062;28;1245;-50
2023/10/16 13:10:57;;;;;;;;;;;;;;;16.77;54.29;101194.22;4949039;29;1549;-55
2023/10/16 13:13:23;;;;;;;;;;;;;;;16.59;54.29;101211.09;4958142;28;1918;-48
2023/10/16 13:15:52;;;;;;;;;;;;;;;16.48;54.06;101207.47;4959127;28;1439;-44
2023/10/16 13:18:30;;;;;;;;;;;;;;;16.38;54.12;101205.47;4958831;28;1518;-49
2023/10/16 13:21:12;;;;;;;;;;;;;;;17.06;53.97;101210.34;4956573;29;1134;-53
2023/10/16 13:23:39;;;;;;;;;;;;;;;17.13;53.48;101218.34;4959299;29;1438;-48
2023/10/16 13:26:07;;;;;;;;;;;;;;;16.73;54.30;101214.22;4958860;29;1042;-51
2023/10/16 13:28:36;;;;;;;;;;;;;;;16.62;54.17;101216.09;4960641;28;1511;-50
2023/10/16 13:31:03;;;;;;;;;;;;;;;16.41;54.51;101212.31;4957733;29;1062;-49
2023/10/16 13:33:32;;;;;;;;;;;;;;;16.76;54.57;101213.72;4953020;29;1891;-51
2023/10/16 13:36:03;;;;;;;;;;;;;;;17.48;52.88;101219.63;4958289;28;1364;-47
2023/10/16 13:38:31;;;;;;;;;;;;;;;16.79;54.12;101215.09;4959041;28;1157;-46
2023/10/16 13:40:57;;;;;;;;;;;;;;;16.62;54.12;101218.84;4957753;28;1096;-48
2023/10/16 13:43:22;;;;;;;;;;;;;;;16.49;54.39;101230.25;4959161;28;1288;-48
2023/10/16 13:45:51;;;;;;;;;;;;;;;16.31;54.29;101224.03;4958150;28;1452;-46
2023/10/16 13:48:21;;;;;;;;;;;;;;;17.04;53.74;101225.44;4960111;28;1092;-47
2023/10/16 13:50:47;;;;;;;;;;;;;;;17.33;53.22;101222.31;4962688;28;1138;-50
2023/10/16 13:53:13;;;;;;;;;;;;;;;16.80;54.23;101225.81;4968152;28;1902;-47
2023/10/16 13:55:39;;;;;;;;;;;;;;;16.58;54.23;101220.44;4976879;28;1092;-47
2023/10/16 13:58:05;;;;;;;;;;;;;;;16.49;54.26;101230.25;4961953;28;1061;-48
2023/10/16 14:00:38;;;;;;;;;;;;;;;16.73;54.44;101231.53;4957233;29;1223;-49
2023/10/16 14:03:10;;;;;;;;;;;;;;;17.53;52.73;101235.31;4957014;29;1307;-51
2023/10/16 14:05:40;;;;;;;;;;;;;;;16.83;54.15;101235.44;4957403;29;1105;-48
2023/10/16 14:08:09;;;;;;;;;;;;;;;16.66;54.10;101241.94;4958431;29;1283;-48
2023/10/16 14:11:00;;;;;;;;;;;;;;;16.48;54.33;101247.81;4952516;29;1018;-48
2023/10/16 14:13:27;;;;;;;;;;;;;;;16.56;54.77;101247.31;4960617;28;1902;-53
2023/10/16 14:15:52;;;;;;;;;;;;;;;17.44;53.03;101251.50;4958844;29;1082;-48
2023/10/16 14:18:21;;;;;;;;;;;;;;;16.84;54.32;101248.09;4958247;29;1330;-49
2023/10/16 14:20:49;;;;;;;;;;;;;;;16.60;54.39;101256.69;4954459;29;1149;-53
2023/10/16 14:23:15;;;;;;;;;;;;;;;16.47;54.50;101254.41;4951176;29;1338;-52
2023/10/16 14:25:57;;;;;;;;;;;;;;;16.41;54.19;101256.25;4957965;29;1260;-53
2023/10/16 14:28:27;;;;;;;;;;;;;;;17.00;53.88;101258.13;4958511;29;1228;-50
2023/10/16 14:30:54;;;;;;;;;;;;;;;17.28;53.35;101270.66;4957581;29;1036;-48
2023/10/16 14:33:21;;;;;;;;;;;;;;;16.82;54.28;101270.31;4951687;29;1957;-48
2023/10/16 14:35:49;;;;;;;;;;;;;;;16.58;54.58;101267.94;4957566;29;1059;-45
2023/10/16 14:38:16;;;;;;;;;;;;;;;16.47;54.19;101265.38;4957710;28;1033;-49
2023/10/16 14:40:42;;;;;;;;;;;;;;;16.34;54.19;101267.47;4957689;28;1296;-49
2023/10/16 14:43:08;;;;;;;;;;;;;;;17.53;53.17;101265.53;4957998;29;1101;-50
2023/10/16 14:45:36;;;;;;;;;;;;;;;17.18;53.63;101276.09;4949287;29;1077;-47
2023/10/16 14:48:03;;;;;;;;;;;;;;;16.74;54.22;101279.88;4955412;29;1239;-52